Time;durP1;ratioP1;P1;durP2;ratioP2;P2;SDS_P1;SDS_P2;PMS_P1;PMS_P2;Temp;Humidity;BMP_temperature;BMP_pressure;BME280_temperature;BME280_humidity;BME280_pressure;Samples;Min_cycle;Max_cycle;Signal;HPM_P1;HPM_P2
2024/04/18 00:00:30;;;;;;;7.82;4.03;;;;;;;1.35;100.00;95609.66;1103051;26;20013;-71
2024/04/18 00:01:00;;;;;;;8.05;4.85;;;;;;;1.33;100.00;95611.66;1093460;26;20009;-71
2024/04/18 00:01:31;;;;;;;9.25;4.63;;;;;;;1.33;100.00;95611.66;1095687;27;20269;-71
2024/04/18 00:02:01;;;;;;;6.18;4.20;;;;;;;1.35;100.00;95610.47;1096699;26;20012;-71
2024/04/18 00:02:32;;;;;;;5.85;4.07;;;;;;;1.37;100.00;95610.22;1103194;26;20473;-71
2024/04/18 00:03:02;;;;;;;7.18;4.65;;;;;;;1.34;100.00;95602.91;1117389;26;20339;-72
2024/04/18 00:03:33;;;;;;;6.18;3.58;;;;;;;1.37;100.00;95607.66;1095902;26;20338;-71
2024/04/18 00:04:03;;;;;;;10.93;4.25;;;;;;;1.31;100.00;95598.16;1088830;27;20006;-71
2024/04/18 00:04:33;;;;;;;10.02;4.47;;;;;;;1.33;100.00;95609.06;1102043;26;20013;-71
2024/04/18 00:05:04;;;;;;;6.32;4.55;;;;;;;1.37;100.00;95608.44;1081741;27;20010;-71
2024/04/18 00:05:34;;;;;;;12.18;5.25;;;;;;;1.39;100.00;95608.25;1082073;27;19995;-71
2024/04/18 00:06:05;;;;;;;6.93;4.38;;;;;;;1.38;100.00;95604.09;1088733;27;20418;-71
2024/04/18 00:06:35;;;;;;;6.68;4.30;;;;;;;1.35;100.00;95607.09;1089442;26;20003;-71
2024/04/18 00:07:06;;;;;;;6.70;4.35;;;;;;;1.31;100.00;95605.91;1102862;26;20008;-71
2024/04/18 00:07:36;;;;;;;11.13;5.10;;;;;;;1.28;100.00;95588.25;1103026;26;20047;-71
2024/04/18 00:08:07;;;;;;;7.30;4.20;;;;;;;1.35;100.00;95600.13;1110241;26;20009;-71
2024/04/18 00:08:38;;;;;;;9.95;4.68;;;;;;;1.37;100.00;95610.22;1110340;26;19992;-71
2024/04/18 00:09:08;;;;;;;7.07;4.78;;;;;;;1.40;100.00;95604.66;1102944;26;20901;-71
2024/04/18 00:09:38;;;;;;;6.50;4.90;;;;;;;1.36;100.00;95604.28;1095719;26;19997;-71
2024/04/18 00:10:09;;;;;;;8.18;4.55;;;;;;;1.43;100.00;95601.66;1094993;26;20001;-71
2024/04/18 00:10:42;;;;;;;7.35;4.32;;;;;;;1.47;100.00;95607.19;1096458;26;20064;-71
2024/04/18 00:11:13;;;;;;;6.40;5.05;;;;;;;1.44;100.00;95599.84;1110747;26;20014;-71
2024/04/18 00:11:43;;;;;;;6.38;4.57;;;;;;;1.45;100.00;95599.66;1109098;26;20211;-71
2024/04/18 00:12:14;;;;;;;7.22;4.63;;;;;;;1.44;100.00;95602.44;1103871;26;19993;-71
2024/04/18 00:12:44;;;;;;;9.13;4.90;;;;;;;1.44;100.00;95592.09;1102897;26;20011;-71
2024/04/18 00:13:14;;;;;;;9.63;4.78;;;;;;;1.45;100.00;95607.41;1096078;26;20004;-71
2024/04/18 00:13:45;;;;;;;5.90;4.43;;;;;;;1.42;100.00;95602.66;1088988;27;19998;-71
2024/04/18 00:14:15;;;;;;;7.75;5.13;;;;;;;1.45;100.00;95604.84;1089037;27;20018;-71
2024/04/18 00:14:46;;;;;;;10.13;4.53;;;;;;;1.42;100.00;95605.25;1096090;26;20520;-71
2024/04/18 00:15:18;;;;;;;7.38;4.22;;;;;;;1.39;100.00;95598.69;1102920;26;20356;-71
2024/04/18 00:15:48;;;;;;;9.32;4.80;;;;;;;1.42;100.00;95598.28;1110630;26;19996;-71
2024/04/18 00:16:19;;;;;;;5.03;4.18;;;;;;;1.49;100.00;95603.41;1103382;26;20271;-71
2024/04/18 00:16:49;;;;;;;6.22;4.57;;;;;;;1.45;100.00;95596.28;1095942;27;20456;-71
2024/04/18 00:17:20;;;;;;;9.02;4.55;;;;;;;1.46;100.00;95593.47;1088796;27;20811;-71
2024/04/18 00:17:50;;;;;;;6.30;4.57;;;;;;;1.51;100.00;95603.19;1088458;27;20036;-71
2024/04/18 00:18:21;;;;;;;10.52;5.28;;;;;;;1.52;100.00;95599.63;1088767;26;20010;-71
2024/04/18 00:18:51;;;;;;;5.65;4.00;;;;;;;1.54;100.00;95601.00;1095995;26;20013;-71
2024/04/18 00:19:21;;;;;;;6.22;4.50;;;;;;;1.54;100.00;95608.75;1095801;26;20008;-71
2024/04/18 00:19:52;;;;;;;6.88;4.68;;;;;;;1.58;100.00;95607.34;1101972;26;20001;-71
2024/04/18 00:20:23;;;;;;;9.45;4.88;;;;;;;1.62;100.00;95605.13;1095759;26;19998;-71
2024/04/18 00:20:54;;;;;;;6.47;4.47;;;;;;;1.59;100.00;95606.31;1095939;26;20358;-71
2024/04/18 00:21:24;;;;;;;6.05;4.53;;;;;;;1.56;100.00;95606.75;1106828;26;20008;-71
2024/04/18 00:21:58;;;;;;;6.10;4.60;;;;;;;1.57;100.00;95597.97;1110420;26;20477;-71
2024/04/18 00:22:29;;;;;;;6.30;4.55;;;;;;;1.50;100.00;95599.03;1102795;26;19997;-71
2024/04/18 00:23:00;;;;;;;10.45;4.70;;;;;;;1.57;100.00;95603.16;1095723;26;20228;-71
2024/04/18 00:23:30;;;;;;;7.97;5.15;;;;;;;1.51;100.00;95600.59;1088640;27;20002;-71
2024/04/18 00:24:01;;;;;;;9.10;5.25;;;;;;;1.56;100.00;95600.78;1089073;27;20017;-71
2024/04/18 00:24:31;;;;;;;7.45;4.82;;;;;;;1.63;100.00;95606.69;1096101;26;20009;-71
2024/04/18 00:25:02;;;;;;;8.13;4.93;;;;;;;1.63;100.00;95601.53;1110054;26;20090;-72
2024/04/18 00:25:35;;;;;;;6.82;4.78;;;;;;;1.62;100.00;95607.72;1117441;26;20697;-71
2024/04/18 00:26:06;;;;;;;6.57;4.68;;;;;;;1.61;100.00;95599.16;1110087;26;19996;-71
2024/04/18 00:26:37;;;;;;;8.73;4.85;;;;;;;1.65;100.00;95600.31;1095635;27;20271;-71
2024/04/18 00:27:07;;;;;;;5.75;4.65;;;;;;;1.65;100.00;95602.13;1088756;27;20229;-71
2024/04/18 00:27:38;;;;;;;7.88;5.13;;;;;;;1.64;100.00;95598.75;1089616;26;19998;-71
2024/04/18 00:28:08;;;;;;;8.68;5.03;;;;;;;1.70;100.00;95604.06;1096540;26;20009;-71
2024/04/18 00:28:39;;;;;;;9.43;5.30;;;;;;;1.71;100.00;95601.28;1094302;26;20012;-71
2024/04/18 00:29:10;;;;;;;8.90;4.95;;;;;;;1.63;100.00;95604.13;1096382;27;20004;-71
2024/04/18 00:29:40;;;;;;;8.57;4.97;;;;;;;1.62;100.00;95600.75;1096727;26;19997;-71
2024/04/18 00:30:10;;;;;;;7.10;5.00;;;;;;;1.67;100.00;95604.47;1103181;26;20088;-71
2024/04/18 00:30:41;;;;;;;7.65;5.00;;;;;;;1.65;100.00;95600.31;1110959;26;20391;-71
2024/04/18 00:31:12;;;;;;;8.10;5.47;;;;;;;1.69;100.00;95605.09;1103621;26;19996;-71
2024/04/18 00:31:42;;;;;;;6.28;4.68;;;;;;;1.67;100.00;95604.47;1103587;26;20009;-71
2024/04/18 00:32:15;;;;;;;8.20;5.10;;;;;;;1.63;100.00;95602.31;1089307;27;20013;-71
2024/04/18 00:32:46;;;;;;;9.68;5.50;;;;;;;1.70;100.00;95604.84;1083820;27;20382;-71
2024/04/18 00:33:16;;;;;;;8.40;5.70;;;;;;;1.71;100.00;95603.88;1096125;26;20216;-71
2024/04/18 00:33:47;;;;;;;9.02;5.50;;;;;;;1.71;100.00;95606.47;1098113;26;20012;-71
2024/04/18 00:34:18;;;;;;;9.43;5.25;;;;;;;1.68;100.00;95604.28;1103529;26;19996;-71
2024/04/18 00:34:48;;;;;;;8.82;5.55;;;;;;;1.69;100.00;95605.09;1110805;26;20230;-71
2024/04/18 00:35:18;;;;;;;7.75;5.47;;;;;;;1.74;100.00;95603.44;1110779;26;20008;-71
2024/04/18 00:35:49;;;;;;;7.88;5.32;;;;;;;1.77;100.00;95608.19;1096329;26;20057;-71
2024/04/18 00:36:19;;;;;;;9.50;5.78;;;;;;;1.72;100.00;95600.28;1103624;26;20001;-71
2024/04/18 00:36:50;;;;;;;9.55;6.07;;;;;;;1.73;100.00;95606.25;1089333;27;20013;-71
2024/04/18 00:37:20;;;;;;;8.23;5.28;;;;;;;1.79;100.00;95608.00;1082514;27;20466;-71
2024/04/18 00:37:51;;;;;;;7.60;5.65;;;;;;;1.79;100.00;95603.59;1096542;27;20677;-71
2024/04/18 00:38:21;;;;;;;10.88;5.65;;;;;;;1.81;100.00;95605.97;1099195;26;20009;-71
2024/04/18 00:38:51;;;;;;;7.55;5.47;;;;;;;1.79;100.00;95595.84;1089414;27;20002;-71
2024/04/18 00:39:22;;;;;;;9.40;5.15;;;;;;;1.87;100.00;95612.88;1089618;27;20067;-71
2024/04/18 00:39:52;;;;;;;8.80;5.75;;;;;;;1.88;100.00;95609.31;1088559;27;20068;-71
2024/04/18 00:40:23;;;;;;;6.50;4.93;;;;;;;1.85;100.00;95601.97;1096508;26;19993;-71
2024/04/18 00:40:53;;;;;;;8.60;5.55;;;;;;;1.78;100.00;95594.28;1103804;26;20008;-71
2024/04/18 00:41:24;;;;;;;8.05;5.57;;;;;;;1.82;100.00;95600.59;1110801;26;20003;-71
2024/04/18 00:41:54;;;;;;;9.30;5.57;;;;;;;1.86;100.00;95606.16;1110678;26;19996;-71
2024/04/18 00:42:24;;;;;;;9.05;5.80;;;;;;;1.86;100.00;95599.16;1110819;26;20000;-71
2024/04/18 00:42:55;;;;;;;9.85;5.60;;;;;;;1.86;100.00;95593.22;1110862;26;20058;-71
2024/04/18 00:43:25;;;;;;;11.43;6.18;;;;;;;1.85;100.00;95604.56;1096300;26;19997;-71
2024/04/18 00:43:56;;;;;;;9.85;5.85;;;;;;;1.86;100.00;95606.16;1096456;27;19997;-71
2024/04/18 00:44:27;;;;;;;11.40;6.00;;;;;;;1.84;100.00;95606.34;1096582;26;19998;-71
2024/04/18 00:44:57;;;;;;;12.35;5.70;;;;;;;1.80;100.00;95591.47;1096218;26;20009;-71
2024/04/18 00:45:27;;;;;;;8.02;5.85;;;;;;;1.86;100.00;95600.97;1096517;26;20009;-71
2024/04/18 00:45:58;;;;;;;10.43;5.85;;;;;;;1.81;100.00;95603.38;1096494;27;20002;-71
2024/04/18 00:46:28;;;;;;;9.40;5.40;;;;;;;1.80;100.00;95597.41;1096308;27;20034;-71
2024/04/18 00:46:59;;;;;;;7.25;5.55;;;;;;;1.85;100.00;95605.34;1096166;27;20384;-71
2024/04/18 00:47:29;;;;;;;8.13;5.97;;;;;;;1.82;100.00;95604.97;1096656;26;20013;-71
2024/04/18 00:48:00;;;;;;;8.45;5.68;;;;;;;1.80;100.00;95607.78;1103558;26;19993;-71
2024/04/18 00:48:30;;;;;;;9.15;5.75;;;;;;;1.81;100.00;95609.38;1100815;26;20005;-71
2024/04/18 00:49:00;;;;;;;10.10;6.40;;;;;;;1.82;100.00;95604.97;1096393;26;20001;-71
2024/04/18 00:49:31;;;;;;;10.68;6.28;;;;;;;1.79;100.00;95597.66;1089231;27;20014;-71
2024/04/18 00:50:02;;;;;;;10.60;6.60;;;;;;;1.79;100.00;95592.47;1088971;27;20041;-71
2024/04/18 00:50:32;;;;;;;8.25;6.25;;;;;;;1.76;100.00;95596.25;1103346;26;20455;-71
2024/04/18 00:51:03;;;;;;;10.13;6.47;;;;;;;1.74;100.00;95597.47;1096427;26;20441;-71
2024/04/18 00:51:33;;;;;;;12.73;7.03;;;;;;;1.70;100.00;95601.47;1089508;27;20010;-71
2024/04/18 00:52:04;;;;;;;10.85;7.13;;;;;;;1.71;100.00;95601.28;1108074;26;20001;-71
2024/04/18 00:52:34;;;;;;;9.02;6.50;;;;;;;1.69;100.00;95595.53;1103505;26;20046;-71
2024/04/18 00:53:04;;;;;;;9.20;5.95;;;;;;;1.74;100.00;95602.66;1103491;26;19997;-70
2024/04/18 00:53:35;;;;;;;10.25;6.45;;;;;;;1.72;100.00;95604.66;1096048;27;19997;-71
2024/04/18 00:54:05;;;;;;;8.75;6.10;;;;;;;1.68;100.00;95593.13;1096458;27;20028;-71
2024/04/18 00:54:36;;;;;;;12.20;6.57;;;;;;;1.71;100.00;95595.31;1082263;27;20003;-72
2024/04/18 00:55:06;;;;;;;9.93;6.57;;;;;;;1.70;100.00;95596.31;1089205;27;20013;-71
2024/04/18 00:55:37;;;;;;;9.20;6.65;;;;;;;1.69;100.00;95594.75;1110091;26;20077;-71
2024/04/18 00:56:07;;;;;;;8.52;6.22;;;;;;;1.70;100.00;95596.31;1096523;27;20078;-71
2024/04/18 00:56:38;;;;;;;12.68;7.07;;;;;;;1.65;100.00;95589.19;1103522;26;20001;-71
2024/04/18 00:57:08;;;;;;;9.93;6.80;;;;;;;1.72;100.00;95596.91;1103242;26;20499;-71
2024/04/18 00:57:39;;;;;;;9.35;6.60;;;;;;;1.71;100.00;95597.88;1103300;26;20013;-72
2024/04/18 00:58:10;;;;;;;9.60;7.07;;;;;;;1.69;100.00;95594.75;1096335;27;20012;-70
2024/04/18 00:58:40;;;;;;;12.25;6.95;;;;;;;1.64;100.00;95598.75;1089432;27;20032;-72
2024/04/18 00:59:12;;;;;;;10.65;6.57;;;;;;;1.69;100.00;95594.75;1096005;27;19993;-71
2024/04/18 00:59:43;;;;;;;8.98;6.00;;;;;;;1.70;100.00;95596.31;1095683;27;20323;-70
2024/04/18 01:00:14;;;;;;;8.07;6.13;;;;;;;1.70;100.00;95606.66;1103335;26;20284;-71
2024/04/18 01:00:46;;;;;;;9.55;6.72;;;;;;;1.73;100.00;95598.47;1117871;26;20313;-71
2024/04/18 01:01:16;;;;;;;12.02;6.65;;;;;;;1.74;100.00;95600.06;1110644;26;20482;-71
2024/04/18 01:01:49;;;;;;;12.32;7.05;;;;;;;1.74;100.00;95605.22;1103849;26;20259;-72
2024/04/18 01:02:20;;;;;;;9.55;6.72;;;;;;;1.72;100.00;95596.91;1103546;26;19996;-71
2024/04/18 01:02:50;;;;;;;10.70;6.72;;;;;;;1.61;100.00;95593.19;1097038;26;20232;-71
2024/04/18 01:03:21;;;;;;;10.05;6.88;;;;;;;1.64;100.00;95597.94;1089754;27;20579;-71
2024/04/18 01:03:51;;;;;;;10.07;6.45;;;;;;;1.55;100.00;95596.63;1090216;27;20002;-71
2024/04/18 01:04:22;;;;;;;11.40;7.13;;;;;;;1.62;100.00;95595.56;1096236;27;19997;-71
2024/04/18 01:04:52;;;;;;;10.85;6.95;;;;;;;1.61;100.00;95594.00;1089505;27;20017;-71
2024/04/18 01:05:22;;;;;;;12.35;6.97;;;;;;;1.64;100.00;95603.09;1096244;27;20014;-72
2024/04/18 01:05:53;;;;;;;10.25;6.22;;;;;;;1.69;100.00;95602.50;1096220;26;20551;-71
2024/04/18 01:06:23;;;;;;;13.80;6.85;;;;;;;1.61;100.00;95594.00;1096636;26;20927;-71
2024/04/18 01:06:54;;;;;;;11.77;6.88;;;;;;;1.66;100.00;95608.88;1082640;27;19999;-71
2024/04/18 01:07:24;;;;;;;8.77;6.78;;;;;;;1.65;100.00;95602.13;1089607;26;20011;-72
2024/04/18 01:07:55;;;;;;;10.30;7.10;;;;;;;1.70;100.00;95606.66;1109084;26;20000;-71
2024/04/18 01:08:25;;;;;;;10.70;7.13;;;;;;;1.58;100.00;95589.25;1110745;26;20008;-71
2024/04/18 01:08:56;;;;;;;11.82;6.10;;;;;;;1.69;100.00;95602.50;1110770;26;20008;-71
2024/04/18 01:09:26;;;;;;;12.90;7.18;;;;;;;1.71;100.00;95601.28;1103295;26;19997;-71
2024/04/18 01:09:57;;;;;;;11.27;6.80;;;;;;;1.70;100.00;95596.31;1102628;26;20863;-72
2024/04/18 01:10:27;;;;;;;9.73;6.93;;;;;;;1.72;100.00;95599.50;1096410;26;20432;-72
2024/04/18 01:10:58;;;;;;;9.65;6.40;;;;;;;1.71;100.00;95597.88;1096677;26;20013;-71
2024/04/18 01:11:28;;;;;;;13.98;7.28;;;;;;;1.76;100.00;95598.06;1103246;26;20012;-71
2024/04/18 01:11:58;;;;;;;10.05;6.82;;;;;;;1.79;100.00;95610.56;1089451;27;20014;-72
2024/04/18 01:12:29;;;;;;;9.98;6.53;;;;;;;1.78;100.00;95604.63;1096506;26;20081;-71
2024/04/18 01:13:00;;;;;;;13.73;7.05;;;;;;;1.78;100.00;95603.81;1096192;26;19998;-72
2024/04/18 01:13:37;;;;;;;9.85;6.72;;;;;;;1.76;100.00;95595.47;1089687;26;20013;-71
2024/04/18 01:14:08;;;;;;;13.27;6.72;;;;;;;1.76;100.00;95592.88;1096308;27;20068;-71
2024/04/18 01:14:39;;;;;;;13.70;7.07;;;;;;;1.83;100.00;95602.19;1105284;26;20963;-71
2024/04/18 01:15:09;;;;;;;14.60;7.00;;;;;;;1.86;100.00;95600.97;1105375;26;20376;-71
2024/04/18 01:15:40;;;;;;;11.23;6.65;;;;;;;1.85;100.00;95605.34;1110578;26;20008;-72
2024/04/18 01:16:10;;;;;;;10.13;6.32;;;;;;;1.92;100.00;95607.09;1098137;26;20068;-71
2024/04/18 01:16:40;;;;;;;9.57;6.70;;;;;;;1.87;100.00;95608.50;1096575;26;20009;-71
2024/04/18 01:17:11;;;;;;;9.95;6.35;;;;;;;1.87;100.00;95592.19;1103612;26;20444;-72
2024/04/18 01:17:41;;;;;;;9.77;6.50;;;;;;;1.93;100.00;95606.88;1096492;26;20032;-71
2024/04/18 01:18:12;;;;;;;9.25;6.63;;;;;;;1.95;100.00;95609.28;1103055;26;20005;-71
2024/04/18 01:18:42;;;;;;;11.02;6.70;;;;;;;1.83;100.00;95598.81;1096416;27;20002;-71
2024/04/18 01:19:17;;;;;;;13.98;6.93;;;;;;;1.83;100.00;95598.81;1096240;27;19997;-71
2024/04/18 01:19:48;;;;;;;11.38;7.35;;;;;;;1.87;100.00;95602.53;1095224;27;20005;-71
2024/04/18 01:20:20;;;;;;;8.85;6.63;;;;;;;1.86;100.00;95596.59;1096249;27;20635;-72
2024/04/18 01:20:50;;;;;;;11.18;7.55;;;;;;;1.92;100.00;95602.72;1089314;27;19994;-72
2024/04/18 01:21:21;;;;;;;12.20;7.18;;;;;;;1.85;100.00;95591.63;1096191;27;20224;-71
2024/04/18 01:21:52;;;;;;;10.60;6.95;;;;;;;1.91;100.00;95602.91;1089227;27;19998;-71
2024/04/18 01:22:22;;;;;;;10.52;7.00;;;;;;;1.92;100.00;95605.31;1082639;27;20070;-71
2024/04/18 01:22:53;;;;;;;10.20;6.72;;;;;;;1.92;100.00;95605.31;1089182;27;20009;-71
2024/04/18 01:23:25;;;;;;;8.95;6.43;;;;;;;1.94;100.00;95603.28;1089514;26;20013;-71
2024/04/18 01:23:56;;;;;;;9.85;6.75;;;;;;;1.93;100.00;95599.13;1096932;26;20093;-72
2024/04/18 01:24:26;;;;;;;11.77;7.20;;;;;;;1.91;100.00;95603.69;1104026;26;20334;-71
2024/04/18 01:24:57;;;;;;;10.25;6.68;;;;;;;1.90;100.00;95596.94;1111199;26;20438;-71
2024/04/18 01:25:30;;;;;;;11.75;6.65;;;;;;;1.91;100.00;95603.69;1111426;26;20451;-71
2024/04/18 01:26:00;;;;;;;10.50;7.28;;;;;;;1.93;100.00;95601.72;1110498;26;20318;-72
2024/04/18 01:26:31;;;;;;;10.32;7.28;;;;;;;1.90;100.00;95607.31;1103251;26;20075;-71
2024/04/18 01:27:01;;;;;;;10.90;7.25;;;;;;;1.94;100.00;95607.66;1103599;26;20067;-71
2024/04/18 01:27:31;;;;;;;10.40;6.53;;;;;;;1.97;100.00;95602.06;1103593;26;19993;-71
2024/04/18 01:28:02;;;;;;;10.45;6.75;;;;;;;1.99;100.00;95600.88;1112039;26;20007;-72
2024/04/18 01:28:32;;;;;;;10.93;7.07;;;;;;;1.93;100.00;95606.88;1115698;26;19999;-71
2024/04/18 01:29:03;;;;;;;10.23;6.38;;;;;;;1.93;100.00;95608.69;1117990;26;20000;-71
2024/04/18 01:29:33;;;;;;;11.77;6.70;;;;;;;1.96;100.00;95609.03;1118072;26;19999;-71
2024/04/18 01:30:04;;;;;;;9.68;6.32;;;;;;;2.00;100.00;95602.44;1095355;26;19998;-72
2024/04/18 01:30:36;;;;;;;10.00;6.00;;;;;;;2.01;100.00;95608.41;1103446;26;20886;-71
2024/04/18 01:31:06;;;;;;;8.80;6.38;;;;;;;2.01;100.00;95609.22;1103680;26;20001;-71
2024/04/18 01:31:37;;;;;;;10.70;6.93;;;;;;;2.03;100.00;95607.19;1089080;27;20604;-71
2024/04/18 01:32:07;;;;;;;11.68;6.53;;;;;;;2.01;100.00;95609.22;1082298;27;20433;-71
2024/04/18 01:32:38;;;;;;;9.73;6.25;;;;;;;2.05;100.00;95604.41;1096361;26;20687;-71
2024/04/18 01:33:08;;;;;;;9.68;6.00;;;;;;;1.97;100.00;95602.06;1103347;26;20016;-71
2024/04/18 01:33:39;;;;;;;10.02;5.93;;;;;;;1.99;100.00;95606.03;1096583;27;20072;-71
2024/04/18 01:34:09;;;;;;;9.98;6.50;;;;;;;2.02;100.00;95615.97;1103537;26;20012;-71
2024/04/18 01:34:39;;;;;;;8.88;6.15;;;;;;;2.01;100.00;95609.22;1096264;26;19997;-71
2024/04/18 01:35:10;;;;;;;12.30;6.65;;;;;;;1.94;100.00;95603.28;1096378;26;20413;-71
2024/04/18 01:35:40;;;;;;;9.48;5.72;;;;;;;1.97;100.00;95613.22;1096386;27;20817;-71
2024/04/18 01:36:11;;;;;;;8.07;6.43;;;;;;;1.93;100.00;95606.88;1096765;26;19998;-71
2024/04/18 01:36:41;;;;;;;9.45;6.60;;;;;;;1.88;100.00;95607.53;1107116;26;20003;-71
2024/04/18 01:37:12;;;;;;;9.85;6.03;;;;;;;1.93;100.00;95606.09;1103909;26;19997;-71
2024/04/18 01:37:42;;;;;;;9.77;6.47;;;;;;;1.93;100.00;95606.88;1096529;26;20006;-71
2024/04/18 01:38:13;;;;;;;10.25;6.55;;;;;;;1.97;100.00;95608.03;1089276;27;20003;-71
2024/04/18 01:38:43;;;;;;;10.32;6.30;;;;;;;2.00;100.00;95612.00;1089249;27;20528;-71
2024/04/18 01:39:14;;;;;;;9.82;6.32;;;;;;;2.00;100.00;95601.66;1095868;26;20500;-72
2024/04/18 01:39:44;;;;;;;10.48;6.55;;;;;;;2.03;100.00;95607.19;1109931;26;20469;-71
2024/04/18 01:40:15;;;;;;;8.90;6.18;;;;;;;1.99;100.00;95600.06;1110752;26;20471;-72
2024/04/18 01:40:46;;;;;;;10.75;6.43;;;;;;;1.99;100.00;95600.06;1096458;26;20342;-71
2024/04/18 01:41:18;;;;;;;9.18;6.38;;;;;;;2.03;100.00;95607.19;1089198;27;20010;-71
2024/04/18 01:41:48;;;;;;;10.90;6.10;;;;;;;2.00;100.00;95610.19;1089360;27;19998;-72
2024/04/18 01:42:18;;;;;;;9.93;6.80;;;;;;;1.93;100.00;95611.25;1083811;26;20247;-71
2024/04/18 01:42:49;;;;;;;9.52;6.20;;;;;;;1.96;100.00;95610.84;1104168;26;20071;-72
2024/04/18 01:43:19;;;;;;;9.27;6.47;;;;;;;1.96;100.00;95606.47;1110643;26;20010;-71
2024/04/18 01:43:50;;;;;;;9.45;6.15;;;;;;;1.97;100.00;95608.03;1096416;26;19994;-71
2024/04/18 01:44:20;;;;;;;11.20;6.03;;;;;;;1.98;100.00;95603.66;1089038;27;20002;-71
2024/04/18 01:44:52;;;;;;;7.85;5.70;;;;;;;1.95;100.00;95602.28;1089175;27;20097;-71
2024/04/18 01:45:23;;;;;;;9.45;6.35;;;;;;;1.94;100.00;95600.69;1089132;27;20092;-72
2024/04/18 01:45:53;;;;;;;10.18;6.53;;;;;;;1.98;100.00;95608.81;1089975;27;20853;-71
2024/04/18 01:46:24;;;;;;;10.82;6.18;;;;;;;1.96;100.00;95613.44;1089713;27;19998;-71
2024/04/18 01:46:54;;;;;;;10.15;6.38;;;;;;;1.94;100.00;95608.47;1097036;26;20009;-71
2024/04/18 01:47:25;;;;;;;9.70;6.35;;;;;;;1.94;100.00;95608.47;1103428;26;20071;-72
2024/04/18 01:47:55;;;;;;;9.52;6.15;;;;;;;1.91;100.00;95608.88;1110767;26;20042;-71
2024/04/18 01:48:25;;;;;;;10.50;6.60;;;;;;;1.92;100.00;95610.47;1103086;26;20082;-71
2024/04/18 01:48:56;;;;;;;10.27;6.30;;;;;;;1.83;100.00;95596.22;1096524;26;20789;-71
2024/04/18 01:49:26;;;;;;;12.48;6.57;;;;;;;1.89;100.00;95610.91;1110488;26;20005;-71
2024/04/18 01:49:57;;;;;;;9.70;6.10;;;;;;;1.95;100.00;95612.66;1109942;26;20340;-71
2024/04/18 01:50:27;;;;;;;8.68;5.85;;;;;;;1.96;100.00;95611.63;1116561;26;19996;-71
2024/04/18 01:50:58;;;;;;;9.68;6.45;;;;;;;1.95;100.00;95604.88;1117923;26;19995;-71
2024/04/18 01:51:28;;;;;;;8.15;5.60;;;;;;;1.90;100.00;95604.72;1103308;26;20078;-72
2024/04/18 01:51:58;;;;;;;12.82;6.18;;;;;;;1.92;100.00;95610.47;1103269;26;20001;-71
2024/04/18 01:52:29;;;;;;;9.20;6.07;;;;;;;1.96;100.00;95609.03;1096254;27;20486;-72
2024/04/18 01:52:59;;;;;;;11.73;6.45;;;;;;;1.93;100.00;95606.09;1096332;26;20502;-72
2024/04/18 01:53:30;;;;;;;11.88;6.25;;;;;;;1.86;100.00;95611.31;1103739;26;20497;-71
2024/04/18 01:54:00;;;;;;;10.70;5.75;;;;;;;1.84;100.00;95610.72;1110978;26;20439;-71
2024/04/18 01:54:31;;;;;;;9.85;6.60;;;;;;;1.86;100.00;95611.31;1103449;26;20047;-71
2024/04/18 01:55:02;;;;;;;9.63;6.13;;;;;;;1.86;100.00;95609.50;1103452;26;20012;-71
2024/04/18 01:55:33;;;;;;;9.18;6.32;;;;;;;1.88;100.00;95606.72;1102986;26;20008;-71
2024/04/18 01:56:04;;;;;;;9.75;6.25;;;;;;;1.83;100.00;95601.38;1096954;26;20228;-71
2024/04/18 01:56:34;;;;;;;8.48;6.18;;;;;;;1.88;100.00;95611.91;1096488;26;20002;-71
2024/04/18 01:57:05;;;;;;;11.35;6.85;;;;;;;1.86;100.00;95606.16;1103322;26;20047;-71
2024/04/18 01:57:36;;;;;;;11.90;6.45;;;;;;;1.86;100.00;95606.94;1089105;27;19998;-71
2024/04/18 01:58:06;;;;;;;11.13;6.57;;;;;;;1.89;100.00;95611.69;1103538;26;20008;-72
2024/04/18 01:58:36;;;;;;;8.35;6.25;;;;;;;1.86;100.00;95606.16;1103278;26;20239;-71
2024/04/18 01:59:07;;;;;;;11.32;7.00;;;;;;;1.80;100.00;95599.22;1103306;26;20017;-71
2024/04/18 01:59:37;;;;;;;10.52;6.82;;;;;;;1.92;100.00;95610.47;1096313;27;20008;-71
2024/04/18 02:00:10;;;;;;;10.70;6.20;;;;;;;1.92;100.00;95607.09;1088472;27;20599;-71
2024/04/18 02:00:43;;;;;;;10.55;6.03;;;;;;;1.90;100.00;95609.88;1096809;26;20097;-72
2024/04/18 02:01:14;;;;;;;11.10;6.28;;;;;;;1.86;100.00;95613.91;1091757;26;20744;-71
2024/04/18 02:01:44;;;;;;;9.13;6.57;;;;;;;1.89;100.00;95616.06;1104546;26;20240;-71
2024/04/18 02:02:14;;;;;;;9.30;6.22;;;;;;;1.89;100.00;95613.47;1110668;26;20336;-71
2024/04/18 02:02:45;;;;;;;10.18;6.35;;;;;;;1.92;100.00;95615.66;1096132;26;20460;-71
2024/04/18 02:03:15;;;;;;;10.50;6.10;;;;;;;1.96;100.00;95614.22;1110577;26;20453;-71
2024/04/18 02:03:46;;;;;;;9.63;6.65;;;;;;;1.93;100.00;95617.22;1103289;26;20290;-71
2024/04/18 02:04:19;;;;;;;10.95;6.60;;;;;;;1.87;100.00;95608.50;1088937;26;19998;-71
2024/04/18 02:04:49;;;;;;;10.50;5.70;;;;;;;1.87;100.00;95610.31;1096402;27;20002;-71
2024/04/18 02:05:20;;;;;;;10.07;6.50;;;;;;;1.86;100.00;95612.09;1096373;27;20313;-71
2024/04/18 02:05:50;;;;;;;9.30;6.38;;;;;;;1.87;100.00;95610.31;1096113;26;20073;-71
2024/04/18 02:06:21;;;;;;;11.95;6.57;;;;;;;1.92;100.00;95614.88;1104225;26;20000;-71
2024/04/18 02:06:51;;;;;;;10.02;6.47;;;;;;;1.91;100.00;95619.22;1103417;26;20001;-71
2024/04/18 02:07:21;;;;;;;9.50;6.57;;;;;;;1.89;100.00;95619.44;1103369;26;19997;-71
2024/04/18 02:07:52;;;;;;;8.77;6.60;;;;;;;1.91;100.00;95616.63;1103043;26;20012;-71
2024/04/18 02:08:22;;;;;;;10.18;6.40;;;;;;;1.91;100.00;95608.88;1101233;26;20001;-72
2024/04/18 02:08:53;;;;;;;9.98;6.93;;;;;;;1.93;100.00;95617.22;1103353;26;20004;-72
2024/04/18 02:09:23;;;;;;;7.65;5.75;;;;;;;1.97;100.00;95625.34;1110463;26;20031;-72
2024/04/18 02:09:54;;;;;;;12.60;6.10;;;;;;;1.90;100.00;95617.66;1102493;26;20012;-71
2024/04/18 02:10:24;;;;;;;9.13;5.88;;;;;;;1.96;100.00;95621.97;1096387;26;19998;-72
2024/04/18 02:10:55;;;;;;;9.73;6.20;;;;;;;1.83;100.00;95604.75;1103247;26;20008;-71
2024/04/18 02:11:25;;;;;;;10.35;6.32;;;;;;;1.95;100.00;95622.22;1081765;27;20352;-71
2024/04/18 02:11:55;;;;;;;9.60;6.15;;;;;;;1.92;100.00;95620.81;1082348;27;20006;-71
2024/04/18 02:12:26;;;;;;;10.57;6.22;;;;;;;1.95;100.00;95624.78;1096269;26;19997;-72
2024/04/18 02:12:56;;;;;;;9.60;6.18;;;;;;;1.92;100.00;95610.47;1096233;26;20005;-72
2024/04/18 02:13:27;;;;;;;9.48;6.60;;;;;;;1.97;100.00;95626.16;1103228;26;20008;-71
2024/04/18 02:13:57;;;;;;;11.13;5.95;;;;;;;1.96;100.00;95624.56;1103200;26;20008;-71
2024/04/18 02:14:28;;;;;;;10.70;6.32;;;;;;;1.99;100.00;95620.78;1103295;26;20008;-71
2024/04/18 02:14:58;;;;;;;9.80;5.90;;;;;;;2.01;100.00;95619.56;1110664;26;20001;-72
2024/04/18 02:15:29;;;;;;;10.13;5.65;;;;;;;1.97;100.00;95623.56;1110638;26;20043;-71
2024/04/18 02:16:00;;;;;;;8.68;5.75;;;;;;;1.91;100.00;95619.22;1103398;26;20429;-71
2024/04/18 02:16:30;;;;;;;12.02;6.88;;;;;;;1.94;100.00;95626.56;1096098;26;20237;-71
2024/04/18 02:17:01;;;;;;;11.55;6.25;;;;;;;1.96;100.00;95627.16;1096453;27;19994;-72
2024/04/18 02:17:32;;;;;;;7.43;5.43;;;;;;;1.98;100.00;95622.56;1090063;26;20538;-72
2024/04/18 02:18:02;;;;;;;8.82;5.82;;;;;;;1.95;100.00;95625.59;1103509;26;20319;-71
2024/04/18 02:18:33;;;;;;;9.30;6.25;;;;;;;1.93;100.00;95622.41;1103478;26;20001;-72
2024/04/18 02:19:03;;;;;;;10.07;6.07;;;;;;;1.96;100.00;95632.34;1110680;26;19996;-71
2024/04/18 02:19:34;;;;;;;10.80;6.55;;;;;;;2.00;100.00;95623.13;1117564;26;19999;-71
2024/04/18 02:20:04;;;;;;;8.38;6.05;;;;;;;1.85;100.00;95607.16;1117297;26;20011;-71
2024/04/18 02:20:35;;;;;;;9.02;5.88;;;;;;;2.01;100.00;95632.50;1117754;26;20053;-72
2024/04/18 02:21:06;;;;;;;9.38;6.05;;;;;;;2.00;100.00;95628.31;1117743;26;20009;-72
2024/04/18 02:21:36;;;;;;;10.82;6.00;;;;;;;1.95;100.00;95620.41;1103087;26;20012;-72
2024/04/18 02:22:06;;;;;;;11.95;6.22;;;;;;;1.95;100.00;95630.75;1095744;26;20067;-71
2024/04/18 02:22:37;;;;;;;10.73;6.38;;;;;;;1.94;100.00;95618.81;1096212;26;19993;-72
2024/04/18 02:23:07;;;;;;;9.35;6.25;;;;;;;2.00;100.00;95625.72;1086500;27;19998;-70
2024/04/18 02:23:38;;;;;;;12.75;6.70;;;;;;;2.02;100.00;95634.09;1089155;27;20005;-71